sensor_id;sensor_type;location;lat;lon;timestamp;P1;durP1;ratioP1;P2;durP2;ratioP2
47431;SDS011;33183;52.290;6.144;2024-03-23T00:52:30;5.95;;;2.75;;
47431;SDS011;33183;52.290;6.144;2024-03-23T00:54:55;5.93;;;2.53;;
47431;SDS011;33183;52.290;6.144;2024-03-23T00:57:20;4.68;;;2.22;;
47431;SDS011;33183;52.290;6.144;2024-03-23T00:59:45;4.72;;;2.47;;
47431;SDS011;33183;52.290;6.144;2024-03-23T01:02:11;5.63;;;2.25;;
47431;SDS011;33183;52.290;6.144;2024-03-23T01:04:36;5.55;;;2.00;;
47431;SDS011;33183;52.290;6.144;2024-03-23T01:07:01;5.55;;;2.33;;
47431;SDS011;33183;52.290;6.144;2024-03-23T01:09:26;5.82;;;2.13;;
47431;SDS011;33183;52.290;6.144;2024-03-23T01:11:52;6.53;;;2.50;;
47431;SDS011;33183;52.290;6.144;2024-03-23T01:14:17;6.65;;;2.60;;
47431;SDS011;33183;52.290;6.144;2024-03-23T01:16:42;7.07;;;2.65;;
47431;SDS011;33183;52.290;6.144;2024-03-23T01:19:07;4.93;;;2.50;;
47431;SDS011;33183;52.290;6.144;2024-03-23T01:21:33;5.75;;;2.20;;
47431;SDS011;33183;52.290;6.144;2024-03-23T01:23:58;4.85;;;2.20;;
47431;SDS011;33183;52.290;6.144;2024-03-23T01:26:24;3.80;;;2.05;;
47431;SDS011;33183;52.290;6.144;2024-03-23T01:28:49;5.63;;;2.72;;
47431;SDS011;33183;52.290;6.144;2024-03-23T01:31:14;7.63;;;2.22;;
47431;SDS011;33183;52.290;6.144;2024-03-23T01:33:41;5.97;;;2.60;;
47431;SDS011;33183;52.290;6.144;2024-03-23T01:36:06;3.72;;;1.85;;
47431;SDS011;33183;52.290;6.144;2024-03-23T01:38:31;5.85;;;2.25;;
47431;SDS011;33183;52.290;6.144;2024-03-23T01:40:57;5.63;;;3.03;;
47431;SDS011;33183;52.290;6.144;2024-03-23T01:43:22;5.18;;;2.15;;
47431;SDS011;33183;52.290;6.144;2024-03-23T01:45:48;6.25;;;2.60;;
47431;SDS011;33183;52.290;6.144;2024-03-23T01:48:13;4.88;;;2.20;;
47431;SDS011;33183;52.290;6.144;2024-03-23T01:50:38;6.38;;;2.30;;
47431;SDS011;33183;52.290;6.144;2024-03-23T01:53:04;5.28;;;2.75;;
47431;SDS011;33183;52.290;6.144;2024-03-23T01:55:32;5.47;;;2.20;;
47431;SDS011;33183;52.290;6.144;2024-03-23T01:57:57;5.80;;;2.15;;
47431;SDS011;33183;52.290;6.144;2024-03-23T02:00:23;6.82;;;2.53;;
47431;SDS011;33183;52.290;6.144;2024-03-23T02:02:48;3.95;;;2.08;;
47431;SDS011;33183;52.290;6.144;2024-03-23T02:05:13;4.60;;;2.75;;
47431;SDS011;33183;52.290;6.144;2024-03-23T02:07:39;6.75;;;2.50;;
47431;SDS011;33183;52.290;6.144;2024-03-23T02:10:08;6.43;;;2.35;;
47431;SDS011;33183;52.290;6.144;2024-03-23T02:12:40;4.07;;;2.33;;
47431;SDS011;33183;52.290;6.144;2024-03-23T02:15:05;6.85;;;2.55;;
47431;SDS011;33183;52.290;6.144;2024-03-23T02:17:33;6.38;;;2.13;;
47431;SDS011;33183;52.290;6.144;2024-03-23T02:19:59;5.97;;;2.20;;
47431;SDS011;33183;52.290;6.144;2024-03-23T02:22:25;6.30;;;2.50;;
47431;SDS011;33183;52.290;6.144;2024-03-23T02:24:50;5.65;;;2.10;;
47431;SDS011;33183;52.290;6.144;2024-03-23T02:27:15;7.57;;;2.47;;
47431;SDS011;33183;52.290;6.144;2024-03-23T02:29:40;4.75;;;2.20;;
47431;SDS011;33183;52.290;6.144;2024-03-23T02:32:06;5.63;;;2.28;;
47431;SDS011;33183;52.290;6.144;2024-03-23T02:34:33;4.72;;;2.10;;
47431;SDS011;33183;52.290;6.144;2024-03-23T02:36:59;4.53;;;2.40;;
47431;SDS011;33183;52.290;6.144;2024-03-23T02:39:24;5.75;;;2.22;;
47431;SDS011;33183;52.290;6.144;2024-03-23T02:41:49;6.82;;;2.50;;
47431;SDS011;33183;52.290;6.144;2024-03-23T02:44:14;4.55;;;2.17;;
47431;SDS011;33183;52.290;6.144;2024-03-23T02:46:40;6.18;;;2.75;;
47431;SDS011;33183;52.290;6.144;2024-03-23T02:49:05;6.00;;;2.20;;
47431;SDS011;33183;52.290;6.144;2024-03-23T02:51:30;5.72;;;2.53;;
47431;SDS011;33183;52.290;6.144;2024-03-23T02:53:56;4.35;;;2.42;;
47431;SDS011;33183;52.290;6.144;2024-03-23T02:56:21;6.38;;;2.55;;
47431;SDS011;33183;52.290;6.144;2024-03-23T02:58:47;5.00;;;2.63;;
47431;SDS011;33183;52.290;6.144;2024-03-23T03:01:12;4.30;;;2.00;;
47431;SDS011;33183;52.290;6.144;2024-03-23T03:03:37;7.05;;;3.03;;
47431;SDS011;33183;52.290;6.144;2024-03-23T03:06:03;5.38;;;2.13;;
47431;SDS011;33183;52.290;6.144;2024-03-23T03:08:28;5.88;;;2.80;;
47431;SDS011;33183;52.290;6.144;2024-03-23T03:10:53;4.13;;;2.05;;
47431;SDS011;33183;52.290;6.144;2024-03-23T03:13:19;5.18;;;2.72;;
47431;SDS011;33183;52.290;6.144;2024-03-23T03:15:44;4.43;;;2.38;;
47431;SDS011;33183;52.290;6.144;2024-03-23T03:18:09;7.88;;;2.55;;
47431;SDS011;33183;52.290;6.144;2024-03-23T03:20:38;5.40;;;2.47;;
47431;SDS011;33183;52.290;6.144;2024-03-23T03:23:04;5.43;;;2.75;;
47431;SDS011;33183;52.290;6.144;2024-03-23T03:25:30;5.05;;;2.13;;
47431;SDS011;33183;52.290;6.144;2024-03-23T03:27:55;4.72;;;2.47;;
47431;SDS011;33183;52.290;6.144;2024-03-23T03:30:20;6.40;;;2.50;;
47431;SDS011;33183;52.290;6.144;2024-03-23T03:32:46;7.95;;;3.03;;
47431;SDS011;33183;52.290;6.144;2024-03-23T03:35:11;6.95;;;2.70;;
47431;SDS011;33183;52.290;6.144;2024-03-23T03:37:36;5.18;;;2.35;;
47431;SDS011;33183;52.290;6.144;2024-03-23T03:40:02;7.78;;;2.63;;
47431;SDS011;33183;52.290;6.144;2024-03-23T03:42:28;7.40;;;2.80;;
47431;SDS011;33183;52.290;6.144;2024-03-23T03:44:53;5.60;;;2.38;;
47431;SDS011;33183;52.290;6.144;2024-03-23T03:47:19;5.18;;;2.40;;
47431;SDS011;33183;52.290;6.144;2024-03-23T03:49:44;5.57;;;2.33;;
47431;SDS011;33183;52.290;6.144;2024-03-23T03:52:09;4.72;;;2.05;;
47431;SDS011;33183;52.290;6.144;2024-03-23T03:54:37;4.10;;;2.10;;
47431;SDS011;33183;52.290;6.144;2024-03-23T03:57:03;5.13;;;2.38;;
47431;SDS011;33183;52.290;6.144;2024-03-23T03:59:29;5.15;;;2.47;;
47431;SDS011;33183;52.290;6.144;2024-03-23T04:01:54;6.63;;;2.65;;
47431;SDS011;33183;52.290;6.144;2024-03-23T04:04:19;5.13;;;2.53;;
47431;SDS011;33183;52.290;6.144;2024-03-23T04:06:45;5.25;;;2.20;;
47431;SDS011;33183;52.290;6.144;2024-03-23T04:09:10;5.93;;;2.60;;
47431;SDS011;33183;52.290;6.144;2024-03-23T04:11:36;6.03;;;2.70;;
47431;SDS011;33183;52.290;6.144;2024-03-23T04:14:01;6.43;;;2.67;;
47431;SDS011;33183;52.290;6.144;2024-03-23T04:16:27;7.15;;;2.97;;
47431;SDS011;33183;52.290;6.144;2024-03-23T04:18:53;6.65;;;2.50;;
47431;SDS011;33183;52.290;6.144;2024-03-23T04:21:19;6.05;;;2.50;;
47431;SDS011;33183;52.290;6.144;2024-03-23T04:23:44;4.38;;;2.30;;
47431;SDS011;33183;52.290;6.144;2024-03-23T04:26:09;5.03;;;2.70;;
47431;SDS011;33183;52.290;6.144;2024-03-23T04:28:35;4.65;;;2.38;;
47431;SDS011;33183;52.290;6.144;2024-03-23T04:31:03;4.88;;;2.47;;
47431;SDS011;33183;52.290;6.144;2024-03-23T04:33:29;6.28;;;2.50;;
47431;SDS011;33183;52.290;6.144;2024-03-23T04:35:54;4.72;;;2.35;;
47431;SDS011;33183;52.290;6.144;2024-03-23T04:38:19;6.47;;;2.60;;
47431;SDS011;33183;52.290;6.144;2024-03-23T04:40:44;6.40;;;2.50;;
47431;SDS011;33183;52.290;6.144;2024-03-23T04:43:10;4.82;;;2.50;;
47431;SDS011;33183;52.290;6.144;2024-03-23T04:45:35;5.93;;;2.40;;
47431;SDS011;33183;52.290;6.144;2024-03-23T04:48:00;5.93;;;2.38;;
47431;SDS011;33183;52.290;6.144;2024-03-23T04:50:25;5.38;;;2.40;;
47431;SDS011;33183;52.290;6.144;2024-03-23T04:52:50;5.82;;;2.55;;
47431;SDS011;33183;52.290;6.144;2024-03-23T04:55:16;4.45;;;2.50;;
47431;SDS011;33183;52.290;6.144;2024-03-23T04:57:42;7.80;;;2.75;;
47431;SDS011;33183;52.290;6.144;2024-03-23T05:00:07;6.65;;;3.10;;
47431;SDS011;33183;52.290;6.144;2024-03-23T05:02:41;7.60;;;2.85;;
47431;SDS011;33183;52.290;6.144;2024-03-23T05:05:07;5.00;;;2.30;;
47431;SDS011;33183;52.290;6.144;2024-03-23T05:07:33;5.43;;;2.70;;
47431;SDS011;33183;52.290;6.144;2024-03-23T05:09:58;4.85;;;2.63;;
47431;SDS011;33183;52.290;6.144;2024-03-23T05:12:23;4.28;;;2.17;;
47431;SDS011;33183;52.290;6.144;2024-03-23T05:14:49;5.28;;;2.40;;
47431;SDS011;33183;52.290;6.144;2024-03-23T05:17:15;7.60;;;2.72;;
47431;SDS011;33183;52.290;6.144;2024-03-23T05:19:40;6.15;;;2.80;;
47431;SDS011;33183;52.290;6.144;2024-03-23T05:22:05;4.30;;;2.10;;
47431;SDS011;33183;52.290;6.144;2024-03-23T05:24:31;7.90;;;3.00;;
47431;SDS011;33183;52.290;6.144;2024-03-23T05:26:56;7.22;;;2.95;;
47431;SDS011;33183;52.290;6.144;2024-03-23T05:29:24;6.38;;;2.20;;
47431;SDS011;33183;52.290;6.144;2024-03-23T05:31:51;5.85;;;2.75;;
47431;SDS011;33183;52.290;6.144;2024-03-23T05:34:17;4.57;;;2.42;;
47431;SDS011;33183;52.290;6.144;2024-03-23T05:36:42;6.60;;;2.65;;
47431;SDS011;33183;52.290;6.144;2024-03-23T05:39:08;4.75;;;2.53;;
47431;SDS011;33183;52.290;6.144;2024-03-23T05:41:33;5.60;;;2.28;;
47431;SDS011;33183;52.290;6.144;2024-03-23T05:44:00;4.68;;;2.40;;
47431;SDS011;33183;52.290;6.144;2024-03-23T05:46:26;5.28;;;2.55;;
47431;SDS011;33183;52.290;6.144;2024-03-23T05:48:51;4.80;;;2.75;;
47431;SDS011;33183;52.290;6.144;2024-03-23T05:51:17;6.65;;;2.30;;
47431;SDS011;33183;52.290;6.144;2024-03-23T05:53:43;6.13;;;2.95;;
47431;SDS011;33183;52.290;6.144;2024-03-23T05:56:08;6.30;;;2.80;;
47431;SDS011;33183;52.290;6.144;2024-03-23T05:58:34;5.68;;;2.40;;
47431;SDS011;33183;52.290;6.144;2024-03-23T06:01:00;4.28;;;2.28;;
47431;SDS011;33183;52.290;6.144;2024-03-23T06:03:26;7.88;;;2.75;;
47431;SDS011;33183;52.290;6.144;2024-03-23T06:05:52;5.45;;;2.50;;
47431;SDS011;33183;52.290;6.144;2024-03-23T06:08:20;8.40;;;3.10;;
47431;SDS011;33183;52.290;6.144;2024-03-23T06:10:46;4.32;;;2.10;;
47431;SDS011;33183;52.290;6.144;2024-03-23T06:13:12;6.07;;;2.15;;
47431;SDS011;33183;52.290;6.144;2024-03-23T06:15:38;5.38;;;2.47;;
47431;SDS011;33183;52.290;6.144;2024-03-23T06:18:03;5.95;;;2.40;;
47431;SDS011;33183;52.290;6.144;2024-03-23T06:20:29;5.32;;;2.63;;
47431;SDS011;33183;52.290;6.144;2024-03-23T06:22:55;5.55;;;2.30;;
47431;SDS011;33183;52.290;6.144;2024-03-23T06:25:20;11.20;;;2.63;;
47431;SDS011;33183;52.290;6.144;2024-03-23T06:27:45;4.25;;;1.98;;
47431;SDS011;33183;52.290;6.144;2024-03-23T06:30:11;5.50;;;2.13;;
47431;SDS011;33183;52.290;6.144;2024-03-23T06:32:37;5.38;;;2.20;;
47431;SDS011;33183;52.290;6.144;2024-03-23T06:35:02;8.30;;;2.85;;
47431;SDS011;33183;52.290;6.144;2024-03-23T06:37:33;5.10;;;2.28;;
47431;SDS011;33183;52.290;6.144;2024-03-23T06:39:58;5.05;;;2.67;;
47431;SDS011;33183;52.290;6.144;2024-03-23T06:42:23;4.80;;;2.05;;
47431;SDS011;33183;52.290;6.144;2024-03-23T06:44:48;5.45;;;2.05;;
47431;SDS011;33183;52.290;6.144;2024-03-23T06:47:14;4.82;;;2.10;;
47431;SDS011;33183;52.290;6.144;2024-03-23T06:49:39;4.32;;;2.05;;
47431;SDS011;33183;52.290;6.144;2024-03-23T06:52:04;6.93;;;2.33;;
47431;SDS011;33183;52.290;6.144;2024-03-23T06:54:29;4.35;;;1.80;;
47431;SDS011;33183;52.290;6.144;2024-03-23T06:56:55;5.10;;;2.40;;
47431;SDS011;33183;52.290;6.144;2024-03-23T06:59:20;6.72;;;2.30;;
47431;SDS011;33183;52.290;6.144;2024-03-23T07:01:45;3.72;;;1.80;;
47431;SDS011;33183;52.290;6.144;2024-03-23T07:04:11;6.82;;;2.38;;
47431;SDS011;33183;52.290;6.144;2024-03-23T07:06:42;4.78;;;1.85;;
47431;SDS011;33183;52.290;6.144;2024-03-23T07:09:08;5.43;;;1.88;;
47431;SDS011;33183;52.290;6.144;2024-03-23T07:11:33;4.68;;;1.88;;
47431;SDS011;33183;52.290;6.144;2024-03-23T07:13:59;5.68;;;2.00;;
47431;SDS011;33183;52.290;6.144;2024-03-23T07:16:24;4.72;;;2.33;;
47431;SDS011;33183;52.290;6.144;2024-03-23T07:18:51;5.70;;;1.90;;
47431;SDS011;33183;52.290;6.144;2024-03-23T07:21:17;5.00;;;2.75;;
47431;SDS011;33183;52.290;6.144;2024-03-23T07:23:42;5.05;;;2.05;;
47431;SDS011;33183;52.290;6.144;2024-03-23T07:26:09;4.53;;;2.03;;
47431;SDS011;33183;52.290;6.144;2024-03-23T07:28:35;3.28;;;1.58;;
47431;SDS011;33183;52.290;6.144;2024-03-23T07:31:08;4.72;;;1.80;;
47431;SDS011;33183;52.290;6.144;2024-03-23T07:33:34;4.07;;;1.80;;
47431;SDS011;33183;52.290;6.144;2024-03-23T07:36:00;5.93;;;2.25;;
47431;SDS011;33183;52.290;6.144;2024-03-23T07:38:28;4.65;;;1.75;;
47431;SDS011;33183;52.290;6.144;2024-03-23T07:41:07;3.72;;;2.25;;
47431;SDS011;33183;52.290;6.144;2024-03-23T07:43:33;4.22;;;1.88;;
47431;SDS011;33183;52.290;6.144;2024-03-23T07:45:59;5.20;;;2.25;;
47431;SDS011;33183;52.290;6.144;2024-03-23T07:48:25;3.10;;;1.55;;
47431;SDS011;33183;52.290;6.144;2024-03-23T07:51:09;4.07;;;1.85;;
47431;SDS011;33183;52.290;6.144;2024-03-23T07:53:35;5.18;;;1.75;;
47431;SDS011;33183;52.290;6.144;2024-03-23T07:56:03;4.25;;;1.75;;
47431;SDS011;33183;52.290;6.144;2024-03-23T07:58:30;7.43;;;2.13;;
47431;SDS011;33183;52.290;6.144;2024-03-23T08:00:55;4.20;;;1.85;;
47431;SDS011;33183;52.290;6.144;2024-03-23T08:03:21;3.70;;;1.80;;
47431;SDS011;33183;52.290;6.144;2024-03-23T08:05:47;3.80;;;1.85;;
47431;SDS011;33183;52.290;6.144;2024-03-23T08:08:12;5.18;;;2.22;;
47431;SDS011;33183;52.290;6.144;2024-03-23T08:10:50;3.45;;;1.58;;
47431;SDS011;33183;52.290;6.144;2024-03-23T08:13:16;5.90;;;2.05;;
47431;SDS011;33183;52.290;6.144;2024-03-23T08:15:42;4.65;;;1.65;;
47431;SDS011;33183;52.290;6.144;2024-03-23T08:18:07;5.85;;;2.17;;
47431;SDS011;33183;52.290;6.144;2024-03-23T08:20:33;5.30;;;1.77;;
47431;SDS011;33183;52.290;6.144;2024-03-23T08:22:58;4.85;;;1.85;;
47431;SDS011;33183;52.290;6.144;2024-03-23T08:25:23;6.10;;;2.00;;
47431;SDS011;33183;52.290;6.144;2024-03-23T08:27:49;5.93;;;1.98;;
47431;SDS011;33183;52.290;6.144;2024-03-23T08:30:14;6.82;;;2.03;;
47431;SDS011;33183;52.290;6.144;2024-03-23T08:32:39;5.70;;;2.30;;
47431;SDS011;33183;52.290;6.144;2024-03-23T08:35:05;4.88;;;1.90;;
47431;SDS011;33183;52.290;6.144;2024-03-23T08:37:30;3.97;;;2.00;;
47431;SDS011;33183;52.290;6.144;2024-03-23T08:39:55;4.80;;;1.90;;
47431;SDS011;33183;52.290;6.144;2024-03-23T08:42:21;4.45;;;1.80;;
47431;SDS011;33183;52.290;6.144;2024-03-23T08:44:46;3.72;;;1.63;;
47431;SDS011;33183;52.290;6.144;2024-03-23T08:47:14;6.40;;;2.73;;
47431;SDS011;33183;52.290;6.144;2024-03-23T08:49:40;4.75;;;1.60;;
47431;SDS011;33183;52.290;6.144;2024-03-23T08:52:05;4.13;;;1.55;;
47431;SDS011;33183;52.290;6.144;2024-03-23T08:54:31;5.05;;;1.90;;
47431;SDS011;33183;52.290;6.144;2024-03-23T08:56:56;6.20;;;2.30;;
47431;SDS011;33183;52.290;6.144;2024-03-23T08:59:21;7.28;;;2.35;;
47431;SDS011;33183;52.290;6.144;2024-03-23T09:01:48;4.07;;;1.77;;
47431;SDS011;33183;52.290;6.144;2024-03-23T09:04:14;6.50;;;1.80;;
47431;SDS011;33183;52.290;6.144;2024-03-23T09:06:39;4.00;;;1.77;;
47431;SDS011;33183;52.290;6.144;2024-03-23T09:09:07;3.55;;;1.73;;
47431;SDS011;33183;52.290;6.144;2024-03-23T09:11:32;6.13;;;1.80;;
47431;SDS011;33183;52.290;6.144;2024-03-23T09:13:58;5.97;;;1.70;;
47431;SDS011;33183;52.290;6.144;2024-03-23T09:16:23;3.95;;;1.70;;
47431;SDS011;33183;52.290;6.144;2024-03-23T09:18:48;5.10;;;1.75;;
47431;SDS011;33183;52.290;6.144;2024-03-23T09:21:13;3.65;;;1.50;;
47431;SDS011;33183;52.290;6.144;2024-03-23T09:23:39;4.75;;;1.55;;
47431;SDS011;33183;52.290;6.144;2024-03-23T09:26:05;7.38;;;1.73;;
47431;SDS011;33183;52.290;6.144;2024-03-23T09:28:32;3.70;;;1.40;;
47431;SDS011;33183;52.290;6.144;2024-03-23T09:31:07;3.97;;;1.60;;
47431;SDS011;33183;52.290;6.144;2024-03-23T09:33:33;3.08;;;1.48;;
47431;SDS011;33183;52.290;6.144;2024-03-23T09:36:03;6.05;;;1.90;;
47431;SDS011;33183;52.290;6.144;2024-03-23T09:38:29;5.63;;;1.77;;
47431;SDS011;33183;52.290;6.144;2024-03-23T09:40:54;5.65;;;1.52;;
47431;SDS011;33183;52.290;6.144;2024-03-23T09:43:19;5.90;;;2.22;;
47431;SDS011;33183;52.290;6.144;2024-03-23T09:45:45;5.18;;;1.75;;
47431;SDS011;33183;52.290;6.144;2024-03-23T09:48:11;7.05;;;2.03;;
47431;SDS011;33183;52.290;6.144;2024-03-23T09:50:40;4.03;;;1.38;;
47431;SDS011;33183;52.290;6.144;2024-03-23T09:53:06;4.78;;;1.60;;
47431;SDS011;33183;52.290;6.144;2024-03-23T09:55:32;4.43;;;1.52;;
47431;SDS011;33183;52.290;6.144;2024-03-23T09:57:57;4.97;;;1.40;;
47431;SDS011;33183;52.290;6.144;2024-03-23T10:00:23;3.78;;;1.50;;
47431;SDS011;33183;52.290;6.144;2024-03-23T10:02:48;4.70;;;1.70;;
47431;SDS011;33183;52.290;6.144;2024-03-23T10:05:20;5.43;;;1.40;;
47431;SDS011;33183;52.290;6.144;2024-03-23T10:07:47;4.07;;;1.40;;
47431;SDS011;33183;52.290;6.144;2024-03-23T10:10:12;6.03;;;2.17;;
47431;SDS011;33183;52.290;6.144;2024-03-23T10:12:39;3.72;;;1.52;;
47431;SDS011;33183;52.290;6.144;2024-03-23T10:15:23;4.40;;;1.40;;
47431;SDS011;33183;52.290;6.144;2024-03-23T10:17:49;6.90;;;1.60;;
47431;SDS011;33183;52.290;6.144;2024-03-23T10:20:21;6.97;;;1.80;;
47431;SDS011;33183;52.290;6.144;2024-03-23T10:22:47;4.70;;;2.08;;
47431;SDS011;33183;52.290;6.144;2024-03-23T10:25:13;5.47;;;1.65;;
47431;SDS011;33183;52.290;6.144;2024-03-23T10:27:38;4.47;;;1.67;;
47431;SDS011;33183;52.290;6.144;2024-03-23T10:30:10;4.45;;;1.70;;
47431;SDS011;33183;52.290;6.144;2024-03-23T10:32:42;5.05;;;2.33;;
47431;SDS011;33183;52.290;6.144;2024-03-23T10:35:14;5.13;;;1.40;;
47431;SDS011;33183;52.290;6.144;2024-03-23T10:37:49;4.40;;;1.95;;
47431;SDS011;33183;52.290;6.144;2024-03-23T10:40:16;4.97;;;2.15;;
47431;SDS011;33183;52.290;6.144;2024-03-23T10:42:43;4.38;;;1.70;;
47431;SDS011;33183;52.290;6.144;2024-03-23T10:45:09;3.13;;;1.55;;
47431;SDS011;33183;52.290;6.144;2024-03-23T10:47:35;3.58;;;1.30;;
47431;SDS011;33183;52.290;6.144;2024-03-23T10:50:03;4.25;;;1.77;;
47431;SDS011;33183;52.290;6.144;2024-03-23T10:52:28;3.75;;;1.40;;
47431;SDS011;33183;52.290;6.144;2024-03-23T10:54:54;3.70;;;1.30;;
47431;SDS011;33183;52.290;6.144;2024-03-23T10:57:21;5.93;;;1.40;;
47431;SDS011;33183;52.290;6.144;2024-03-23T10:59:50;4.10;;;1.40;;
47431;SDS011;33183;52.290;6.144;2024-03-23T11:02:19;2.97;;;1.48;;
47431;SDS011;33183;52.290;6.144;2024-03-23T11:04:45;4.80;;;1.80;;
47431;SDS011;33183;52.290;6.144;2024-03-23T11:07:46;6.13;;;1.37;;
47431;SDS011;33183;52.290;6.144;2024-03-23T11:10:06;2.72;;;1.10;;
47431;SDS011;33183;52.290;6.144;2024-03-23T11:12:50;4.32;;;1.65;;
47431;SDS011;33183;52.290;6.144;2024-03-23T11:15:15;3.65;;;1.38;;
47431;SDS011;33183;52.290;6.144;2024-03-23T11:17:40;3.40;;;1.38;;
47431;SDS011;33183;52.290;6.144;2024-03-23T11:20:06;3.25;;;1.17;;
47431;SDS011;33183;52.290;6.144;2024-03-23T11:25:03;3.28;;;1.17;;
47431;SDS011;33183;52.290;6.144;2024-03-23T11:27:37;3.22;;;1.45;;
47431;SDS011;33183;52.290;6.144;2024-03-23T11:30:12;4.50;;;1.33;;
47431;SDS011;33183;52.290;6.144;2024-03-23T11:32:39;2.95;;;1.38;;
47431;SDS011;33183;52.290;6.144;2024-03-23T11:35:04;3.42;;;1.30;;
47431;SDS011;33183;52.290;6.144;2024-03-23T11:37:30;5.60;;;1.45;;
47431;SDS011;33183;52.290;6.144;2024-03-23T11:39:55;4.13;;;1.63;;
47431;SDS011;33183;52.290;6.144;2024-03-23T11:42:20;3.15;;;1.35;;
47431;SDS011;33183;52.290;6.144;2024-03-23T11:44:46;3.30;;;1.30;;
47431;SDS011;33183;52.290;6.144;2024-03-23T11:47:12;3.80;;;1.33;;
47431;SDS011;33183;52.290;6.144;2024-03-23T11:49:37;4.18;;;1.42;;
47431;SDS011;33183;52.290;6.144;2024-03-23T11:52:06;8.00;;;1.30;;
47431;SDS011;33183;52.290;6.144;2024-03-23T11:54:32;2.35;;;1.10;;
47431;SDS011;33183;52.290;6.144;2024-03-23T11:56:59;4.53;;;1.40;;
47431;SDS011;33183;52.290;6.144;2024-03-23T12:01:57;3.58;;;1.30;;
47431;SDS011;33183;52.290;6.144;2024-03-23T12:04:29;3.10;;;1.00;;
47431;SDS011;33183;52.290;6.144;2024-03-23T12:07:13;4.35;;;1.30;;
47431;SDS011;33183;52.290;6.144;2024-03-23T12:09:40;2.42;;;1.30;;
47431;SDS011;33183;52.290;6.144;2024-03-23T12:12:07;3.75;;;1.60;;
47431;SDS011;33183;52.290;6.144;2024-03-23T12:14:32;3.42;;;1.48;;
47431;SDS011;33183;52.290;6.144;2024-03-23T12:17:07;3.17;;;1.20;;
47431;SDS011;33183;52.290;6.144;2024-03-23T12:19:35;3.20;;;1.00;;
47431;SDS011;33183;52.290;6.144;2024-03-23T12:22:02;3.92;;;1.55;;
47431;SDS011;33183;52.290;6.144;2024-03-23T12:24:28;3.05;;;1.10;;
47431;SDS011;33183;52.290;6.144;2024-03-23T12:26:54;5.75;;;1.58;;
47431;SDS011;33183;52.290;6.144;2024-03-23T12:29:20;6.03;;;1.95;;
47431;SDS011;33183;52.290;6.144;2024-03-23T12:31:45;2.50;;;1.15;;
47431;SDS011;33183;52.290;6.144;2024-03-23T12:34:10;3.85;;;1.02;;
47431;SDS011;33183;52.290;6.144;2024-03-23T12:36:35;4.28;;;1.73;;
47431;SDS011;33183;52.290;6.144;2024-03-23T12:39:01;5.85;;;1.77;;
47431;SDS011;33183;52.290;6.144;2024-03-23T12:41:26;4.50;;;1.65;;
47431;SDS011;33183;52.290;6.144;2024-03-23T12:43:51;5.25;;;1.63;;
47431;SDS011;33183;52.290;6.144;2024-03-23T12:46:17;5.18;;;1.60;;
47431;SDS011;33183;52.290;6.144;2024-03-23T12:48:44;3.95;;;1.60;;
47431;SDS011;33183;52.290;6.144;2024-03-23T12:51:09;4.78;;;1.35;;
47431;SDS011;33183;52.290;6.144;2024-03-23T12:53:35;4.43;;;1.38;;
47431;SDS011;33183;52.290;6.144;2024-03-23T12:56:00;5.20;;;1.98;;
47431;SDS011;33183;52.290;6.144;2024-03-23T12:58:25;5.32;;;1.50;;
47431;SDS011;33183;52.290;6.144;2024-03-23T13:00:50;5.78;;;1.63;;
47431;SDS011;33183;52.290;6.144;2024-03-23T13:03:16;5.38;;;1.50;;
47431;SDS011;33183;52.290;6.144;2024-03-23T13:05:41;2.67;;;1.20;;
47431;SDS011;33183;52.290;6.144;2024-03-23T13:08:06;4.10;;;1.63;;
47431;SDS011;33183;52.290;6.144;2024-03-23T13:10:32;3.90;;;1.40;;
47431;SDS011;33183;52.290;6.144;2024-03-23T13:12:57;5.40;;;1.48;;
47431;SDS011;33183;52.290;6.144;2024-03-23T13:15:23;5.15;;;1.52;;
47431;SDS011;33183;52.290;6.144;2024-03-23T13:17:48;4.35;;;1.52;;
47431;SDS011;33183;52.290;6.144;2024-03-23T13:20:13;8.48;;;1.73;;
47431;SDS011;33183;52.290;6.144;2024-03-23T13:22:39;6.70;;;1.85;;
47431;SDS011;33183;52.290;6.144;2024-03-23T13:25:05;5.72;;;1.30;;
47431;SDS011;33183;52.290;6.144;2024-03-23T13:27:31;7.18;;;1.60;;
47431;SDS011;33183;52.290;6.144;2024-03-23T13:29:57;3.17;;;1.20;;
47431;SDS011;33183;52.290;6.144;2024-03-23T13:32:22;5.32;;;1.33;;
47431;SDS011;33183;52.290;6.144;2024-03-23T13:34:47;4.88;;;1.20;;
47431;SDS011;33183;52.290;6.144;2024-03-23T13:37:15;4.30;;;1.55;;
47431;SDS011;33183;52.290;6.144;2024-03-23T13:39:40;2.50;;;1.10;;
47431;SDS011;33183;52.290;6.144;2024-03-23T13:42:07;3.25;;;1.30;;
47431;SDS011;33183;52.290;6.144;2024-03-23T13:44:34;3.45;;;1.40;;
47431;SDS011;33183;52.290;6.144;2024-03-23T13:46:59;4.38;;;1.30;;
47431;SDS011;33183;52.290;6.144;2024-03-23T13:49:28;3.40;;;1.17;;
47431;SDS011;33183;52.290;6.144;2024-03-23T13:51:55;2.97;;;1.10;;
47431;SDS011;33183;52.290;6.144;2024-03-23T13:54:22;4.80;;;1.50;;
47431;SDS011;33183;52.290;6.144;2024-03-23T13:56:49;3.53;;;1.17;;
47431;SDS011;33183;52.290;6.144;2024-03-23T13:59:17;6.25;;;1.65;;
47431;SDS011;33183;52.290;6.144;2024-03-23T14:01:46;1.90;;;0.82;;
47431;SDS011;33183;52.290;6.144;2024-03-23T14:04:12;2.70;;;1.25;;
47431;SDS011;33183;52.290;6.144;2024-03-23T14:06:38;4.68;;;1.10;;
47431;SDS011;33183;52.290;6.144;2024-03-23T14:09:03;5.72;;;1.20;;
47431;SDS011;33183;52.290;6.144;2024-03-23T14:11:29;4.30;;;1.33;;
47431;SDS011;33183;52.290;6.144;2024-03-23T14:13:54;3.85;;;1.35;;
47431;SDS011;33183;52.290;6.144;2024-03-23T14:16:19;3.10;;;0.90;;
47431;SDS011;33183;52.290;6.144;2024-03-23T14:18:48;2.50;;;0.90;;
47431;SDS011;33183;52.290;6.144;2024-03-23T14:21:13;2.20;;;1.40;;
47431;SDS011;33183;52.290;6.144;2024-03-23T14:23:38;2.30;;;1.00;;
47431;SDS011;33183;52.290;6.144;2024-03-23T14:26:05;2.38;;;1.00;;
47431;SDS011;33183;52.290;6.144;2024-03-23T14:28:31;3.33;;;1.50;;
47431;SDS011;33183;52.290;6.144;2024-03-23T14:30:56;2.25;;;0.80;;
47431;SDS011;33183;52.290;6.144;2024-03-23T14:33:22;4.05;;;1.13;;
47431;SDS011;33183;52.290;6.144;2024-03-23T14:35:53;5.20;;;1.20;;
47431;SDS011;33183;52.290;6.144;2024-03-23T14:38:20;3.70;;;1.20;;
47431;SDS011;33183;52.290;6.144;2024-03-23T14:40:46;2.10;;;1.10;;
47431;SDS011;33183;52.290;6.144;2024-03-23T14:43:11;2.35;;;1.13;;
47431;SDS011;33183;52.290;6.144;2024-03-23T14:45:37;2.25;;;1.20;;
47431;SDS011;33183;52.290;6.144;2024-03-23T14:48:02;3.35;;;1.30;;
47431;SDS011;33183;52.290;6.144;2024-03-23T14:50:28;3.42;;;1.25;;
47431;SDS011;33183;52.290;6.144;2024-03-23T14:52:53;2.78;;;1.30;;
47431;SDS011;33183;52.290;6.144;2024-03-23T14:55:18;2.90;;;1.00;;
47431;SDS011;33183;52.290;6.144;2024-03-23T14:57:44;3.17;;;1.17;;
47431;SDS011;33183;52.290;6.144;2024-03-23T15:00:09;1.98;;;0.90;;
47431;SDS011;33183;52.290;6.144;2024-03-23T15:02:39;2.75;;;1.20;;
47431;SDS011;33183;52.290;6.144;2024-03-23T15:05:04;4.57;;;1.40;;
47431;SDS011;33183;52.290;6.144;2024-03-23T15:07:32;2.08;;;0.90;;
47431;SDS011;33183;52.290;6.144;2024-03-23T15:09:57;3.25;;;1.17;;
47431;SDS011;33183;52.290;6.144;2024-03-23T15:12:22;2.80;;;1.10;;
47431;SDS011;33183;52.290;6.144;2024-03-23T15:14:48;3.67;;;1.70;;
47431;SDS011;33183;52.290;6.144;2024-03-23T15:17:13;2.17;;;0.88;;
47431;SDS011;33183;52.290;6.144;2024-03-23T15:19:39;4.07;;;1.40;;
47431;SDS011;33183;52.290;6.144;2024-03-23T15:22:05;2.08;;;0.90;;
47431;SDS011;33183;52.290;6.144;2024-03-23T15:24:30;2.83;;;1.23;;
47431;SDS011;33183;52.290;6.144;2024-03-23T15:26:56;3.45;;;1.15;;
47431;SDS011;33183;52.290;6.144;2024-03-23T15:29:21;3.70;;;1.50;;
47431;SDS011;33183;52.290;6.144;2024-03-23T15:31:48;2.67;;;0.95;;
47431;SDS011;33183;52.290;6.144;2024-03-23T15:34:17;3.03;;;1.42;;
47431;SDS011;33183;52.290;6.144;2024-03-23T15:36:44;3.20;;;1.20;;
47431;SDS011;33183;52.290;6.144;2024-03-23T15:39:10;2.35;;;1.20;;